Time;durP1;ratioP1;P1;durP2;ratioP2;P2;SDS_P1;SDS_P2;PMS_P1;PMS_P2;Temp;Humidity;BMP_temperature;BMP_pressure;BME280_temperature;BME280_humidity;BME280_pressure;Samples;Min_cycle;Max_cycle;Signal;HPM_P1;HPM_P2
2021/03/31 00:01:01;;;;;;;26.00;6.97;;;;;;;7.29;85.48;102055.88;4909633;29;20374;-80
2021/03/31 00:03:26;;;;;;;26.52;7.25;;;;;;;7.34;85.47;102068.81;4907148;29;20036;-80
2021/03/31 00:05:52;;;;;;;26.52;6.78;;;;;;;7.36;85.56;102069.53;4888671;29;20036;-80
2021/03/31 00:08:17;;;;;;;24.75;7.15;;;;;;;7.38;85.34;102063.00;4873007;29;20037;-80
2021/03/31 00:10:43;;;;;;;21.98;5.97;;;;;;;7.38;85.38;102060.31;4890625;29;20060;-80
2021/03/31 00:13:09;;;;;;;23.77;6.65;;;;;;;7.36;85.79;102061.50;4897981;29;20514;-80
2021/03/31 00:15:35;;;;;;;29.50;7.57;;;;;;;7.23;85.52;102035.88;4928796;29;20039;-81
2021/03/31 00:18:00;;;;;;;26.05;6.95;;;;;;;7.38;85.31;102063.00;4912515;29;20489;-80
2021/03/31 00:20:26;;;;;;;29.95;7.65;;;;;;;7.30;85.42;102050.38;4893997;29;20037;-80
2021/03/31 00:22:52;;;;;;;37.88;7.78;;;;;;;7.34;85.93;102048.22;4890430;29;20474;-81
2021/03/31 00:25:18;;;;;;;28.02;8.00;;;;;;;7.33;85.78;102057.25;4907390;29;20033;-80
2021/03/31 00:27:44;;;;;;;30.38;7.95;;;;;;;7.35;85.46;102055.28;4908821;29;20106;-81
2021/03/31 00:30:15;;;;;;;31.35;8.23;;;;;;;7.30;85.50;102045.00;4890919;29;20025;-81
2021/03/31 00:32:41;;;;;;;28.38;7.55;;;;;;;7.32;85.58;102044.88;4893483;29;20097;-80
2021/03/31 00:35:08;;;;;;;28.77;8.10;;;;;;;7.17;85.35;102016.88;4907639;29;20063;-79
2021/03/31 00:37:35;;;;;;;31.70;8.10;;;;;;;7.31;86.07;102048.53;4891550;29;20398;-80
2021/03/31 00:40:01;;;;;;;26.75;7.78;;;;;;;7.31;85.09;102048.53;4878149;29;20041;-81
2021/03/31 00:42:26;;;;;;;26.80;8.27;;;;;;;7.32;85.35;102055.59;4891546;29;20043;-79
2021/03/31 00:44:52;;;;;;;21.48;7.03;;;;;;;7.23;85.36;102035.03;4891589;29;20344;-80
2021/03/31 00:47:17;;;;;;;30.08;7.75;;;;;;;7.29;85.41;102039.81;4892734;29;20044;-80
2021/03/31 00:49:43;;;;;;;31.50;8.18;;;;;;;7.30;85.36;102049.53;4875856;29;20119;-80
2021/03/31 00:52:09;;;;;;;31.27;8.82;;;;;;;7.24;85.22;102039.41;4908695;29;20029;-81
2021/03/31 00:54:34;;;;;;;32.30;7.95;;;;;;;7.26;85.26;102040.94;4909000;29;20039;-81
2021/03/31 00:57:00;;;;;;;28.02;7.50;;;;;;;7.21;85.66;102034.34;4891627;29;20073;-81
2021/03/31 00:59:26;;;;;;;28.83;7.95;;;;;;;7.15;85.91;102029.56;4893486;29;20040;-81
2021/03/31 01:01:53;;;;;;;31.58;8.00;;;;;;;7.18;85.22;102037.31;4909545;29;20053;-79
2021/03/31 01:04:19;;;;;;;32.00;8.18;;;;;;;7.18;85.61;102031.94;4895379;29;20092;-80
2021/03/31 01:06:44;;;;;;;36.60;7.95;;;;;;;7.09;85.49;102014.94;4913097;29;20029;-80
2021/03/31 01:09:10;;;;;;;33.05;8.15;;;;;;;7.11;85.64;102020.97;4918335;29;20032;-81
2021/03/31 01:12:20;;;;;;;26.73;7.75;;;;;;;7.04;85.67;102020.72;4941750;29;20048;-81
2021/03/31 01:15:14;;;;;;;35.03;7.45;;;;;;;7.07;85.83;102015.09;4915815;29;20052;-81
2021/03/31 01:18:08;;;;;;;35.42;8.15;;;;;;;7.03;85.98;102011.03;4887139;29;20043;-80
2021/03/31 01:20:51;;;;;;;22.75;7.45;;;;;;;7.11;85.76;102014.78;4910996;29;20020;-81
2021/03/31 01:23:38;;;;;;;23.10;7.72;;;;;;;7.07;85.94;102017.75;4894953;29;20028;-80
2021/03/31 01:26:09;;;;;;;29.80;7.55;;;;;;;7.05;85.78;102010.84;4911815;29;20025;-80
2021/03/31 01:29:00;;;;;;;31.42;7.72;;;;;;;7.00;85.96;102008.63;4910293;29;20387;-79
2021/03/31 01:31:31;;;;;;;31.08;8.32;;;;;;;7.02;86.06;102019.22;4910949;29;20059;-80
2021/03/31 01:34:15;;;;;;;30.70;7.50;;;;;;;7.00;86.18;102011.31;4910528;29;20032;-81
2021/03/31 01:36:43;;;;;;;33.03;7.88;;;;;;;6.94;86.05;101998.50;4891221;29;20043;-80
2021/03/31 01:39:11;;;;;;;23.65;7.88;;;;;;;7.00;86.15;102003.28;4890970;29;20029;-81
2021/03/31 01:41:38;;;;;;;28.02;8.05;;;;;;;7.01;86.08;102006.78;4890013;29;20032;-80
2021/03/31 01:44:09;;;;;;;29.27;8.48;;;;;;;6.96;86.41;102004.56;4880678;29;20040;-81
2021/03/31 01:46:39;;;;;;;33.53;8.95;;;;;;;7.01;86.27;102009.47;4912641;29;20050;-79
2021/03/31 01:49:06;;;;;;;28.58;8.50;;;;;;;7.03;86.07;102003.00;4925720;29;20068;-81
2021/03/31 01:51:35;;;;;;;34.72;8.05;;;;;;;7.02;85.90;102005.84;4910279;29;20169;-79
2021/03/31 01:54:03;;;;;;;28.38;8.73;;;;;;;7.04;85.97;102009.19;4908988;29;20037;-80
2021/03/31 01:56:30;;;;;;;27.80;7.35;;;;;;;7.04;86.20;102010.03;4893475;29;20096;-81
2021/03/31 01:58:57;;;;;;;34.30;8.38;;;;;;;7.04;86.37;102007.34;4914323;29;20401;-81
2021/03/31 02:01:22;;;;;;;29.10;7.93;;;;;;;7.05;86.27;102005.50;4912404;29;20099;-80
2021/03/31 02:03:52;;;;;;;30.55;8.57;;;;;;;6.92;85.98;101987.13;4895168;29;20467;-80
2021/03/31 02:06:19;;;;;;;33.05;8.15;;;;;;;7.03;85.96;101991.44;4892977;29;20128;-80
2021/03/31 02:08:45;;;;;;;28.95;9.00;;;;;;;7.04;85.99;102002.00;4909981;29;20163;-81
2021/03/31 02:11:12;;;;;;;31.33;9.32;;;;;;;6.84;85.96;101965.59;4892958;29;20040;-81
2021/03/31 02:13:38;;;;;;;28.80;9.80;;;;;;;7.06;86.18;102007.22;4877581;29;20119;-81
2021/03/31 02:16:06;;;;;;;29.33;9.63;;;;;;;6.90;85.71;101967.69;4908888;29;20040;-81
2021/03/31 02:18:35;;;;;;;32.08;9.55;;;;;;;7.04;86.37;101999.31;4907189;29;20103;-80
2021/03/31 02:21:02;;;;;;;37.63;10.60;;;;;;;7.00;86.12;101992.56;4892333;29;20028;-80
2021/03/31 02:23:28;;;;;;;35.10;10.20;;;;;;;7.06;86.05;101994.66;4908011;29;20029;-79
2021/03/31 02:25:55;;;;;;;39.15;11.07;;;;;;;7.04;85.99;101993.97;4891782;29;20034;-80
2021/03/31 02:28:21;;;;;;;28.02;8.73;;;;;;;7.09;86.29;101984.69;4907699;29;20025;-79
2021/03/31 02:30:46;;;;;;;30.13;9.82;;;;;;;7.04;86.31;101985.94;4909460;29;20024;-80
2021/03/31 02:33:14;;;;;;;30.38;8.60;;;;;;;7.06;86.46;101986.66;4878079;29;20447;-80
2021/03/31 02:35:41;;;;;;;32.22;8.50;;;;;;;7.05;86.49;101982.28;4876260;29;20041;-80
2021/03/31 02:38:10;;;;;;;26.02;8.55;;;;;;;7.03;86.12;101972.72;4893533;29;20064;-80
2021/03/31 02:40:39;;;;;;;30.30;8.70;;;;;;;7.00;86.33;101973.84;4910077;29;20040;-80
2021/03/31 02:43:07;;;;;;;32.35;9.23;;;;;;;7.02;86.35;101981.75;4893206;29;20037;-80
2021/03/31 02:45:35;;;;;;;25.20;9.40;;;;;;;6.92;86.07;101967.53;4893246;29;20048;-80
2021/03/31 02:48:04;;;;;;;29.98;9.48;;;;;;;7.00;86.23;101979.19;4880464;29;20028;-80
2021/03/31 02:50:31;;;;;;;31.65;9.95;;;;;;;7.00;86.47;101964.97;4896109;29;20068;-81
2021/03/31 02:52:58;;;;;;;38.45;10.52;;;;;;;6.97;86.37;101968.78;4889532;29;20115;-79
2021/03/31 02:55:25;;;;;;;31.77;10.57;;;;;;;6.99;86.42;101966.81;4888698;29;20051;-80
2021/03/31 02:57:53;;;;;;;31.67;10.95;;;;;;;6.90;86.63;101950.81;4906323;29;20032;-80
2021/03/31 03:00:22;;;;;;;33.97;11.90;;;;;;;6.95;86.89;101962.72;4891063;29;20130;-80
2021/03/31 03:02:49;;;;;;;34.45;11.13;;;;;;;6.97;86.50;101960.75;4907815;29;20033;-80
2021/03/31 03:05:17;;;;;;;29.75;10.98;;;;;;;6.96;86.33;101967.09;4907276;29;20044;-80
2021/03/31 03:07:44;;;;;;;36.67;11.90;;;;;;;6.97;86.53;101959.91;4890463;29;20032;-81
2021/03/31 03:10:11;;;;;;;31.00;11.57;;;;;;;6.96;86.66;101958.25;4907785;29;20033;-80
2021/03/31 03:12:50;;;;;;;26.95;11.40;;;;;;;6.87;86.60;101948.41;4905706;29;20020;-80
2021/03/31 03:15:18;;;;;;;39.85;12.10;;;;;;;6.93;86.47;101954.03;4897037;29;20032;-80
2021/03/31 03:17:45;;;;;;;34.75;12.15;;;;;;;6.84;86.44;101930.81;4900504;29;20025;-81
2021/03/31 03:20:12;;;;;;;32.03;11.05;;;;;;;6.92;86.52;101955.03;4907533;29;20055;-80
2021/03/31 03:22:40;;;;;;;29.33;10.48;;;;;;;6.92;86.83;101948.81;4925749;29;20024;-80
2021/03/31 03:25:09;;;;;;;32.95;11.13;;;;;;;6.87;86.62;101943.91;4876638;29;20127;-80
2021/03/31 03:27:37;;;;;;;31.45;11.50;;;;;;;6.85;86.94;101945.03;4906902;29;20048;-80
2021/03/31 03:30:06;;;;;;;28.98;11.18;;;;;;;6.74;86.37;101927.34;4890448;29;20025;-80
2021/03/31 03:32:33;;;;;;;34.33;11.43;;;;;;;6.83;86.63;101942.50;4902333;29;20095;-79
2021/03/31 03:34:59;;;;;;;29.35;11.73;;;;;;;6.75;87.21;101942.38;4888445;29;20120;-80
2021/03/31 03:37:24;;;;;;;31.20;11.13;;;;;;;6.68;86.82;101933.25;4888892;29;20502;-80
2021/03/31 03:39:50;;;;;;;25.45;11.13;;;;;;;6.72;87.26;101945.34;4890880;29;20044;-80
2021/03/31 03:42:15;;;;;;;32.38;12.60;;;;;;;6.68;87.38;101952.00;4908845;29;20021;-81
2021/03/31 03:44:41;;;;;;;31.67;11.73;;;;;;;6.59;87.11;101935.00;4893867;29;20047;-80
2021/03/31 03:47:08;;;;;;;31.20;12.07;;;;;;;6.66;87.12;101940.63;4894413;29;20103;-80
2021/03/31 03:49:38;;;;;;;32.63;12.50;;;;;;;6.68;87.00;101946.63;4890706;29;20029;-81
2021/03/31 03:52:12;;;;;;;43.33;14.68;;;;;;;6.73;87.36;101955.09;4904171;29;20049;-79
2021/03/31 03:54:37;;;;;;;38.43;15.83;;;;;;;6.73;87.28;101947.91;4874174;29;20111;-80
2021/03/31 03:57:03;;;;;;;31.13;15.00;;;;;;;6.65;87.51;101937.06;4918572;29;20470;-81
2021/03/31 03:59:29;;;;;;;31.85;14.82;;;;;;;6.73;87.32;101957.75;4905467;29;20073;-81
2021/03/31 04:01:55;;;;;;;29.75;14.93;;;;;;;6.71;87.30;101943.69;4906203;29;20127;-80
2021/03/31 04:04:22;;;;;;;33.55;15.32;;;;;;;6.75;87.47;101945.91;4889706;29;20045;-80
2021/03/31 04:06:49;;;;;;;34.97;15.13;;;;;;;6.77;87.10;101948.44;4906015;29;20436;-81
2021/03/31 04:09:15;;;;;;;34.88;14.90;;;;;;;6.64;87.30;101927.38;4908651;29;20028;-81
2021/03/31 04:11:46;;;;;;;34.00;14.32;;;;;;;6.79;87.17;101943.81;4915099;29;20055;-81
2021/03/31 04:14:12;;;;;;;31.38;14.95;;;;;;;6.75;87.50;101943.22;4900889;29;20459;-81
2021/03/31 04:16:40;;;;;;;41.20;16.92;;;;;;;6.77;87.32;101943.94;4903103;29;20032;-81
2021/03/31 04:19:13;;;;;;;32.83;15.93;;;;;;;6.79;87.15;101944.66;4896989;29;20036;-79
2021/03/31 04:21:40;;;;;;;35.15;15.73;;;;;;;6.81;87.13;101944.47;4901615;29;20048;-79
2021/03/31 04:24:10;;;;;;;25.60;15.05;;;;;;;6.77;87.70;101933.22;4889182;29;20063;-80
2021/03/31 04:26:36;;;;;;;33.97;16.98;;;;;;;6.70;87.80;101926.78;4898897;29;20372;-80
2021/03/31 04:29:02;;;;;;;29.00;15.57;;;;;;;6.75;87.81;101935.19;4902293;29;20040;-80
2021/03/31 04:31:30;;;;;;;32.95;16.15;;;;;;;6.73;87.15;101925.66;4886196;29;20056;-81
2021/03/31 04:33:57;;;;;;;36.10;15.57;;;;;;;6.66;87.19;101920.06;4929736;29;20091;-81
2021/03/31 04:36:23;;;;;;;33.65;15.43;;;;;;;6.72;87.32;101924.81;4917017;29;20063;-81
2021/03/31 04:38:50;;;;;;;32.97;16.02;;;;;;;6.70;87.81;101924.13;4895461;29;20453;-80
2021/03/31 04:41:17;;;;;;;32.72;16.35;;;;;;;6.80;87.69;101948.16;4906394;29;20060;-80
2021/03/31 04:43:43;;;;;;;25.73;14.95;;;;;;;6.78;87.70;101929.56;4892146;29;20036;-79
2021/03/31 04:46:09;;;;;;;35.63;16.98;;;;;;;6.82;87.32;101946.16;4895476;29;20089;-79
2021/03/31 04:48:38;;;;;;;31.02;15.93;;;;;;;6.81;87.47;101945.31;4891413;29;20088;-80
2021/03/31 04:51:06;;;;;;;29.63;14.48;;;;;;;6.70;87.47;101917.94;4893452;29;20051;-80
2021/03/31 04:53:31;;;;;;;30.98;15.60;;;;;;;6.83;87.95;101932.66;4910745;29;20092;-80
2021/03/31 04:55:57;;;;;;;32.05;16.60;;;;;;;6.78;87.89;101936.75;4902917;29;20025;-81
2021/03/31 04:58:23;;;;;;;36.20;17.95;;;;;;;6.77;87.49;101933.22;4890467;29;20059;-80
2021/03/31 05:00:49;;;;;;;34.45;17.50;;;;;;;6.82;87.36;101938.13;4890010;29;20044;-79
2021/03/31 05:03:14;;;;;;;35.90;17.58;;;;;;;6.80;87.62;101943.66;4879667;29;20025;-81
2021/03/31 05:05:40;;;;;;;36.30;17.70;;;;;;;6.77;87.24;101943.09;4902023;29;20032;-81
2021/03/31 05:08:07;;;;;;;36.00;17.23;;;;;;;6.82;87.46;101941.69;4917405;29;20032;-80
2021/03/31 05:10:33;;;;;;;32.78;17.40;;;;;;;6.83;87.60;101950.53;4888298;29;20039;-81
2021/03/31 05:12:59;;;;;;;41.95;17.48;;;;;;;6.84;87.14;101941.50;4920071;29;20012;-81
2021/03/31 05:15:24;;;;;;;34.88;16.55;;;;;;;6.82;87.67;101940.81;4917040;29;20024;-80
2021/03/31 05:17:50;;;;;;;36.03;17.42;;;;;;;6.90;87.34;101951.63;4927242;29;20028;-81
2021/03/31 05:20:16;;;;;;;31.90;16.80;;;;;;;6.86;87.32;101938.72;4889332;29;20043;-81
2021/03/31 05:22:41;;;;;;;29.60;16.10;;;;;;;6.89;87.09;101944.59;4903765;29;20379;-81
2021/03/31 05:25:08;;;;;;;38.67;17.00;;;;;;;6.97;87.17;101954.56;4905548;29;20024;-82
2021/03/31 05:27:34;;;;;;;33.47;16.20;;;;;;;7.00;87.18;101960.47;4884077;29;20062;-82
2021/03/31 05:30:01;;;;;;;37.67;17.13;;;;;;;6.87;87.30;101935.88;4943203;29;20036;-82
2021/03/31 05:32:26;;;;;;;34.50;16.42;;;;;;;7.03;86.93;101954.81;4909504;29;20045;-82
2021/03/31 05:34:52;;;;;;;36.15;19.00;;;;;;;7.09;86.72;101955.22;4920721;29;20037;-81
2021/03/31 05:37:19;;;;;;;41.15;20.85;;;;;;;7.11;87.04;101947.88;4904509;29;20502;-80
2021/03/31 05:39:45;;;;;;;43.65;21.35;;;;;;;7.13;86.88;101952.09;4898245;29;20056;-80
2021/03/31 05:42:11;;;;;;;39.28;19.52;;;;;;;7.14;86.67;101943.06;4909350;29;20025;-81
2021/03/31 05:44:39;;;;;;;39.92;20.52;;;;;;;7.19;86.83;101943.47;4898880;29;20033;-81
2021/03/31 05:47:09;;;;;;;39.85;20.83;;;;;;;7.17;86.57;101941.94;4913879;29;20067;-80
2021/03/31 05:49:35;;;;;;;34.25;18.55;;;;;;;7.22;86.58;101945.03;4904526;29;20032;-81
2021/03/31 05:52:01;;;;;;;36.53;19.38;;;;;;;7.16;86.93;101934.91;4915839;29;20091;-83
2021/03/31 05:54:26;;;;;;;39.00;19.90;;;;;;;7.14;86.71;101927.00;4914421;29;20033;-82
2021/03/31 05:56:52;;;;;;;33.50;18.67;;;;;;;7.13;86.63;101932.53;4924688;29;20013;-82
2021/03/31 05:59:18;;;;;;;39.88;20.17;;;;;;;7.10;86.30;101935.50;4905446;29;20130;-82
2021/03/31 06:01:44;;;;;;;39.08;19.95;;;;;;;7.07;86.92;101945.50;4921916;29;20017;-82
2021/03/31 06:04:10;;;;;;;39.35;20.52;;;;;;;7.06;86.74;101942.97;4891144;29;20017;-82
2021/03/31 06:06:35;;;;;;;37.70;20.73;;;;;;;7.11;86.85;101937.19;4909949;29;20052;-83
2021/03/31 06:09:06;;;;;;;39.78;20.80;;;;;;;6.96;86.65;101910.06;4907171;29;20109;-82
2021/03/31 06:11:53;;;;;;;40.03;20.55;;;;;;;7.12;86.77;101931.69;4907847;29;20024;-82
2021/03/31 06:14:37;;;;;;;43.17;21.35;;;;;;;7.10;86.49;101932.81;4907655;29;20013;-82
2021/03/31 06:17:09;;;;;;;42.70;20.30;;;;;;;7.13;86.40;101927.19;4918590;29;20072;-82
2021/03/31 06:19:38;;;;;;;40.80;21.65;;;;;;;7.12;86.38;101936.19;4910646;29;20043;-82
2021/03/31 06:22:20;;;;;;;43.92;21.25;;;;;;;7.13;86.76;101924.50;4920884;29;20035;-82
2021/03/31 06:25:13;;;;;;;41.88;21.05;;;;;;;7.15;86.50;101925.16;4917563;29;20028;-81
2021/03/31 06:27:38;;;;;;;35.65;19.85;;;;;;;7.12;86.26;101912.94;4917978;29;20020;-81
2021/03/31 06:30:05;;;;;;;36.78;18.92;;;;;;;7.21;86.09;101917.38;4917250;29;20099;-83
2021/03/31 06:32:39;;;;;;;36.83;18.50;;;;;;;7.25;86.26;101925.97;4906189;29;20024;-82
2021/03/31 06:35:06;;;;;;;30.15;17.20;;;;;;;7.27;86.39;101924.81;4921783;29;20136;-82
2021/03/31 06:37:36;;;;;;;34.33;18.35;;;;;;;7.32;86.27;101926.19;4907988;29;20056;-82
2021/03/31 06:40:05;;;;;;;34.88;18.13;;;;;;;7.21;86.30;101911.19;4917445;29;20024;-83
2021/03/31 06:42:44;;;;;;;41.08;19.67;;;;;;;7.36;86.18;101922.25;4925652;29;20036;-82
2021/03/31 06:45:16;;;;;;;35.20;18.95;;;;;;;7.42;86.04;101925.16;4901486;29;20096;-83
2021/03/31 06:47:59;;;;;;;30.88;17.65;;;;;;;7.44;86.04;101928.53;4897461;29;20013;-82
2021/03/31 06:50:25;;;;;;;34.28;17.30;;;;;;;7.44;85.51;101920.50;4907210;29;20095;-83
2021/03/31 06:52:59;;;;;;;29.35;17.27;;;;;;;7.44;85.70;101927.69;4928104;29;20028;-81
2021/03/31 06:55:26;;;;;;;31.58;17.80;;;;;;;7.49;85.92;101936.13;4920186;29;20259;-82
2021/03/31 06:57:58;;;;;;;28.15;16.25;;;;;;;7.53;85.59;101927.63;4921791;29;20051;-82
2021/03/31 07:00:35;;;;;;;28.23;17.50;;;;;;;7.53;85.55;101929.47;4892600;29;20039;-82
2021/03/31 07:03:05;;;;;;;27.05;16.33;;;;;;;7.55;85.33;101924.81;4915872;29;20025;-82
2021/03/31 07:05:33;;;;;;;30.77;15.90;;;;;;;7.61;85.45;101923.34;4903199;29;20032;-81
2021/03/31 07:08:04;;;;;;;30.33;16.60;;;;;;;7.66;85.32;101931.78;4918467;29;20096;-82
2021/03/31 07:10:48;;;;;;;26.95;16.60;;;;;;;7.58;84.67;101913.75;4917758;29;20032;-82
2021/03/31 07:13:29;;;;;;;32.13;17.02;;;;;;;7.67;85.09;101923.56;4909478;29;20052;-81
2021/03/31 07:15:55;;;;;;;28.20;16.20;;;;;;;7.77;84.84;101918.97;4909649;29;20051;-82
2021/03/31 07:18:22;;;;;;;30.25;16.20;;;;;;;7.85;84.69;101923.59;4923480;29;20032;-82
2021/03/31 07:20:48;;;;;;;28.20;16.73;;;;;;;7.96;84.45;101931.38;4921441;29;20029;-82
2021/03/31 07:23:14;;;;;;;30.63;17.60;;;;;;;7.96;84.74;101925.19;4922889;29;20040;-82
2021/03/31 07:25:40;;;;;;;29.80;16.90;;;;;;;8.07;84.67;101922.25;4904979;29;20088;-81
2021/03/31 07:28:06;;;;;;;29.73;16.35;;;;;;;7.91;83.98;101898.84;4914743;29;20298;-82
2021/03/31 07:30:35;;;;;;;29.52;16.58;;;;;;;8.09;83.69;101930.16;4916011;29;20466;-81
2021/03/31 07:33:13;;;;;;;28.45;16.10;;;;;;;8.08;83.57;101931.13;4905673;29;20537;-80
2021/03/31 07:35:39;;;;;;;31.45;17.48;;;;;;;8.06;84.32;101928.63;4917909;29;20013;-81
2021/03/31 07:38:05;;;;;;;34.58;18.42;;;;;;;8.18;83.16;101937.25;4901831;29;20059;-82
2021/03/31 07:40:36;;;;;;;28.50;17.92;;;;;;;8.14;83.22;101922.47;4882973;29;20040;-82
2021/03/31 07:43:20;;;;;;;32.22;18.83;;;;;;;8.25;83.07;101927.59;4911458;29;20032;-81
2021/03/31 07:45:56;;;;;;;31.85;18.48;;;;;;;8.37;83.17;101929.00;4923663;29;20059;-83
2021/03/31 07:48:25;;;;;;;31.63;18.65;;;;;;;8.46;82.93;101914.69;4919967;29;20036;-82
2021/03/31 07:50:51;;;;;;;32.42;19.02;;;;;;;8.56;82.33;101932.53;4917511;29;20057;-82
2021/03/31 07:53:16;;;;;;;30.10;18.38;;;;;;;8.63;82.45;101939.78;4920645;29;20036;-81
2021/03/31 07:55:47;;;;;;;31.30;18.55;;;;;;;8.61;81.94;101935.56;4902209;29;20036;-82
2021/03/31 07:58:16;;;;;;;34.40;20.15;;;;;;;8.69;81.81;101932.94;4919237;29;20031;-82
2021/03/31 08:00:45;;;;;;;36.10;20.30;;;;;;;8.61;81.88;101938.25;4922240;29;20020;-82
2021/03/31 08:03:12;;;;;;;35.33;20.23;;;;;;;8.63;82.55;101934.41;4913126;29;20076;-83
2021/03/31 08:06:15;;;;;;;38.63;21.67;;;;;;;8.71;82.28;101930.94;4925851;29;20045;-82
2021/03/31 08:09:04;;;;;;;33.45;20.63;;;;;;;8.70;82.03;101931.94;4923112;29;20043;-82
2021/03/31 08:11:39;;;;;;;33.63;20.65;;;;;;;8.73;81.81;101933.47;4921459;29;20036;-82
2021/03/31 08:14:08;;;;;;;;;;;;;;;8.72;81.76;101937.16;4919196;29;20032;-82
2021/03/31 08:16:41;;;;;;;36.28;19.70;;;;;;;8.87;81.96;101935.53;4917527;29;19911;-82
2021/03/31 08:19:18;;;;;;;40.70;19.83;;;;;;;8.84;81.66;101930.47;4921558;29;20035;-83
2021/03/31 08:21:46;;;;;;;31.88;19.50;;;;;;;9.05;80.88;101935.47;4918835;29;20068;-82
2021/03/31 08:24:13;;;;;;;33.83;19.33;;;;;;;9.11;80.17;101930.28;4906436;29;20032;-81
2021/03/31 08:26:58;;;;;;;34.92;19.15;;;;;;;9.11;80.55;101932.97;4912996;29;20021;-82
2021/03/31 08:29:24;;;;;;;36.75;19.33;;;;;;;9.14;80.17;101937.19;4907263;29;20064;-82
2021/03/31 08:31:52;;;;;;;35.15;19.40;;;;;;;9.07;80.08;101938.81;4919211;29;20025;-82
2021/03/31 08:34:18;;;;;;;36.47;20.17;;;;;;;9.00;80.28;101933.25;4912669;29;20091;-81
2021/03/31 08:36:43;;;;;;;36.30;21.15;;;;;;;9.10;80.71;101938.50;4915105;29;20065;-80
2021/03/31 08:39:11;;;;;;;36.83;20.42;;;;;;;9.16;80.48;101936.00;4894332;29;20095;-82
2021/03/31 08:41:39;;;;;;;39.10;20.48;;;;;;;9.10;80.86;101931.28;4921621;29;20036;-82
2021/03/31 08:44:11;;;;;;;35.50;19.10;;;;;;;9.11;80.62;101932.16;4918304;29;20052;-82
2021/03/31 08:46:37;;;;;;;35.75;19.13;;;;;;;9.16;80.48;101941.38;4911642;29;20035;-81
2021/03/31 08:49:03;;;;;;;39.40;19.45;;;;;;;9.14;80.39;101935.34;4921980;29;20487;-84
2021/03/31 08:51:28;;;;;;;33.70;18.95;;;;;;;9.16;79.40;101937.84;4908991;29;20087;-82
2021/03/31 08:54:00;;;;;;;36.08;19.33;;;;;;;9.07;80.08;101920.03;4913297;29;20052;-81
2021/03/31 08:56:26;;;;;;;30.48;17.77;;;;;;;9.37;79.77;101926.66;4916705;29;20116;-81
2021/03/31 08:58:55;;;;;;;33.17;19.27;;;;;;;9.40;79.09;101940.63;4916690;29;20025;-81
2021/03/31 09:01:28;;;;;;;30.30;17.90;;;;;;;9.49;79.53;101941.47;4900200;29;20088;-82
2021/03/31 09:04:20;;;;;;;32.40;18.83;;;;;;;9.46;79.12;101938.28;4915543;29;20056;-82
2021/03/31 09:06:48;;;;;;;30.20;19.02;;;;;;;9.64;79.17;101939.00;4923416;29;20040;-80
2021/03/31 09:09:14;;;;;;;26.92;17.23;;;;;;;9.79;78.49;101931.97;4918391;29;20028;-81
2021/03/31 09:11:39;;;;;;;35.08;17.48;;;;;;;9.80;77.57;101900.53;4913360;29;20024;-82
2021/03/31 09:14:33;;;;;;;32.13;18.83;;;;;;;9.95;77.40;101906.94;4900988;29;20039;-81
2021/03/31 09:17:01;;;;;;;31.48;18.08;;;;;;;10.00;78.16;101927.94;4902854;29;20032;-80
2021/03/31 09:19:29;;;;;;;27.88;18.48;;;;;;;10.04;76.88;101915.84;4903845;29;20039;-82
2021/03/31 09:21:54;;;;;;;26.25;16.48;;;;;;;10.08;76.84;101903.75;4920004;29;20059;-82
2021/03/31 09:24:23;;;;;;;24.67;15.85;;;;;;;10.17;76.41;101885.78;4905909;29;20033;-82
2021/03/31 09:27:07;;;;;;;31.65;15.95;;;;;;;10.20;76.33;101901.53;4906629;29;20047;-83
2021/03/31 09:29:34;;;;;;;25.05;15.10;;;;;;;10.41;76.41;101909.97;4920711;29;20024;-82
2021/03/31 09:32:02;;;;;;;25.42;14.15;;;;;;;10.32;76.12;101901.06;4924497;29;20043;-82
2021/03/31 09:34:28;;;;;;;25.15;14.40;;;;;;;10.42;76.23;101905.41;4907806;29;20024;-83
2021/03/31 09:37:13;;;;;;;28.30;14.13;;;;;;;10.40;75.84;101907.44;4913607;29;20096;-81
2021/03/31 09:39:43;;;;;;;31.30;15.10;;;;;;;10.39;75.76;101905.75;4913127;29;20037;-83
2021/03/31 09:42:15;;;;;;;27.77;13.68;;;;;;;10.47;75.94;101906.59;4909045;29;20028;-82
2021/03/31 09:44:40;;;;;;;23.20;13.13;;;;;;;10.37;75.26;101886.28;4921584;29;20016;-83
2021/03/31 09:47:07;;;;;;;29.00;14.48;;;;;;;10.30;75.60;101886.13;4919833;29;20096;-81
2021/03/31 09:49:33;;;;;;;30.00;14.93;;;;;;;10.26;75.90;101890.97;4925563;29;20029;-81
2021/03/31 09:51:58;;;;;;;28.52;15.68;;;;;;;10.22;75.78;101899.53;4925306;29;20008;-83
2021/03/31 09:54:27;;;;;;;31.15;15.75;;;;;;;10.14;75.89;101908.47;4909447;29;20029;-82
2021/03/31 09:56:54;;;;;;;28.08;15.05;;;;;;;9.33;76.16;101783.78;4983524;23;20054;-82
2021/03/31 09:59:20;;;;;;;28.75;15.45;;;;;;;9.52;76.53;101831.00;4878650;29;20029;-80
2021/03/31 10:01:46;;;;;;;28.40;16.08;;;;;;;9.28;76.58;101804.97;4873671;29;20041;-81
2021/03/31 10:04:12;;;;;;;32.53;16.90;;;;;;;9.62;77.09;101849.66;4871801;29;20036;-81
2021/03/31 10:06:38;;;;;;;29.33;17.35;;;;;;;9.26;76.83;101806.97;4861771;29;20033;-81
2021/03/31 10:09:13;;;;;;;27.67;15.93;;;;;;;9.42;76.84;101833.00;4864951;29;20029;-80
2021/03/31 10:11:39;;;;;;;26.38;15.95;;;;;;;9.57;76.93;101858.22;4858783;29;20369;-81
2021/03/31 10:14:05;;;;;;;25.98;15.95;;;;;;;9.47;77.66;101845.94;4857097;29;20036;-82
2021/03/31 10:16:33;;;;;;;25.80;16.15;;;;;;;9.48;77.21;101847.63;4865627;29;20480;-80
2021/03/31 10:19:00;;;;;;;25.55;16.90;;;;;;;9.59;76.92;101845.44;4863339;29;20030;-81
2021/03/31 10:21:30;;;;;;;24.33;15.77;;;;;;;9.53;77.38;101850.63;4848233;29;20102;-81
2021/03/31 10:23:56;;;;;;;20.85;14.60;;;;;;;9.49;77.21;101847.44;4863486;29;20036;-80
2021/03/31 10:26:24;;;;;;;20.65;13.90;;;;;;;9.38;77.55;101848.63;4880628;29;20044;-83
2021/03/31 10:28:51;;;;;;;18.50;13.70;;;;;;;9.31;77.75;101839.53;4861879;29;20037;-82
2021/03/31 10:31:24;;;;;;;19.83;14.38;;;;;;;9.16;77.55;101803.59;4868821;29;20034;-81
2021/03/31 10:33:50;;;;;;;17.92;12.50;;;;;;;9.38;77.46;101829.81;4869086;29;20052;-82
2021/03/31 10:48:07;;;;;;;19.67;14.50;;;;;;;9.19;77.38;101814.00;4871414;29;20044;-82
2021/03/31 10:50:41;;;;;;;21.48;14.65;;;;;;;9.00;78.18;101814.28;4881957;29;20228;-82
2021/03/31 10:53:07;;;;;;;21.00;15.25;;;;;;;9.07;77.71;101805.44;4866358;29;20459;-81
2021/03/31 10:55:33;;;;;;;23.13;15.95;;;;;;;9.12;77.83;101800.41;4906021;29;20022;-82
2021/03/31 10:57:59;;;;;;;19.95;15.27;;;;;;;9.12;77.69;101804.94;4859164;29;20061;-81
2021/03/31 11:00:24;;;;;;;21.88;16.38;;;;;;;8.93;77.86;101784.56;4844778;29;20034;-81
2021/03/31 11:02:50;;;;;;;22.48;15.63;;;;;;;9.14;77.67;101819.03;4859887;29;20039;-82
2021/03/31 11:05:15;;;;;;;26.23;17.00;;;;;;;9.07;77.57;101809.94;4871389;29;20105;-81
2021/03/31 11:07:41;;;;;;;22.38;16.70;;;;;;;9.11;77.87;101814.84;4853236;29;20037;-82
2021/03/31 11:10:07;;;;;;;23.00;16.35;;;;;;;9.08;77.97;101804.44;4888196;29;20029;-81
2021/03/31 11:12:32;;;;;;;22.23;16.10;;;;;;;8.96;77.92;101802.22;4857285;29;20041;-81
2021/03/31 11:15:00;;;;;;;21.73;15.48;;;;;;;8.98;77.93;101808.25;4862030;29;20037;-81
2021/03/31 11:17:52;;;;;;;22.17;15.40;;;;;;;9.03;78.14;101808.59;4887361;29;20029;-82
2021/03/31 11:28:00;;;;;;;25.73;17.10;;;;;;;8.75;78.26;101808.03;4872409;29;20056;-82
2021/03/31 11:30:25;;;;;;;25.05;17.55;;;;;;;8.83;78.32;101810.72;4874232;29;20026;-81
2021/03/31 11:32:50;;;;;;;24.90;17.60;;;;;;;8.90;77.74;101806.38;4856308;29;20037;-80
2021/03/31 11:35:16;;;;;;;28.58;19.05;;;;;;;8.85;78.37;101798.00;4869325;29;20101;-81
2021/03/31 11:37:43;;;;;;;26.88;18.30;;;;;;;8.97;77.74;101801.19;4860010;29;20046;-81
2021/03/31 11:40:09;;;;;;;31.70;20.50;;;;;;;8.91;78.04;101800.88;4885675;29;20068;-82
2021/03/31 11:42:34;;;;;;;31.20;19.00;;;;;;;8.98;77.60;101806.41;4854507;29;20034;-82
2021/03/31 11:45:00;;;;;;;31.77;19.15;;;;;;;8.98;77.61;101802.91;4895222;29;20060;-81
2021/03/31 11:47:25;;;;;;;28.23;19.17;;;;;;;9.01;77.58;101808.78;4869179;29;20039;-81